EWG71L EDDL-EKCH
Flight info
| Callsign | EWG71L |
|---|---|
| Flight time | 0h 54m |
| Altitude | 35000 |
| Route | MEVEL1Z MEVEL Y850 BASUM M170 STADE DCT MEGAR P605 GESKA Z711 MONAK |
| Aircraft | A321/M-SDE3FGHIRWY/LB1 |
Departure
| Time | 2026-05-05 17:58 |
|---|---|
| Airport | Düsseldorf Airport (EDDL) |
Arrival
| Time | 2026-05-05 18:53 |
|---|---|
| Airport | Copenhagen Kastrup Airport (EKCH) |
| Time | Latitude | Longitude | Altitude | Speed | Heading |
|---|---|---|---|---|---|
| 2026-05-05 17:12 | 51.28109 | 6.76540 | 129 ft | 0 kts | 96° |
| 2026-05-05 17:47 | 51.28109 | 6.76537 | 128 ft | 2 kts | 96° |
| 2026-05-05 17:47 | 51.28111 | 6.76496 | 127 ft | 4 kts | 96° |
| 2026-05-05 17:47 | 51.28114 | 6.76459 | 124 ft | 4 kts | 77° |
| 2026-05-05 17:47 | 51.28102 | 6.76437 | 124 ft | 4 kts | 4° |
| 2026-05-05 17:48 | 51.28076 | 6.76441 | 125 ft | 4 kts | 340° |
| 2026-05-05 17:48 | 51.28063 | 6.76450 | 123 ft | 0 kts | 327° |
| 2026-05-05 17:53 | 51.28064 | 6.76449 | 123 ft | 1 kts | 327° |
| 2026-05-05 17:53 | 51.28080 | 6.76432 | 126 ft | 5 kts | 327° |
| 2026-05-05 17:54 | 51.28119 | 6.76378 | 126 ft | 9 kts | 309° |
| 2026-05-05 17:54 | 51.28156 | 6.76294 | 124 ft | 8 kts | 310° |
| 2026-05-05 17:54 | 51.28179 | 6.76261 | 127 ft | 3 kts | 320° |
| 2026-05-05 17:54 | 51.28198 | 6.76224 | 126 ft | 5 kts | 298° |
| 2026-05-05 17:55 | 51.28192 | 6.76154 | 128 ft | 9 kts | 240° |
| 2026-05-05 17:55 | 51.28149 | 6.76063 | 127 ft | 11 kts | 232° |
| 2026-05-05 17:55 | 51.28101 | 6.75962 | 128 ft | 12 kts | 233° |
| 2026-05-05 17:55 | 51.28048 | 6.75850 | 128 ft | 13 kts | 233° |
| 2026-05-05 17:56 | 51.27992 | 6.75732 | 128 ft | 14 kts | 233° |
| 2026-05-05 17:56 | 51.27929 | 6.75601 | 127 ft | 15 kts | 232° |
| 2026-05-05 17:56 | 51.27874 | 6.75488 | 126 ft | 14 kts | 232° |
| 2026-05-05 17:56 | 51.27839 | 6.75384 | 124 ft | 9 kts | 274° |
| 2026-05-05 17:57 | 51.27886 | 6.75309 | 123 ft | 11 kts | 334° |
| 2026-05-05 17:57 | 51.27961 | 6.75260 | 124 ft | 12 kts | 349° |
| 2026-05-05 17:57 | 51.28024 | 6.75331 | 123 ft | 12 kts | 54° |
| 2026-05-05 17:57 | 51.28166 | 6.75629 | 126 ft | 68 kts | 53° |
| 2026-05-05 17:58 | 51.28590 | 6.76518 | 124 ft | 131 kts | 53° |
| 2026-05-05 17:58 | 51.29230 | 6.77858 | 391 ft | 158 kts | 49° |
| 2026-05-05 17:58 | 51.29885 | 6.79257 | 1158 ft | 158 kts | 51° |
| 2026-05-05 17:58 | 51.30534 | 6.80653 | 1879 ft | 155 kts | 52° |
| 2026-05-05 17:59 | 51.31187 | 6.82035 | 2450 ft | 156 kts | 52° |
| 2026-05-05 17:59 | 51.31844 | 6.83420 | 3023 ft | 156 kts | 52° |
| 2026-05-05 17:59 | 51.32526 | 6.84851 | 3353 ft | 171 kts | 53° |
| 2026-05-05 17:59 | 51.33288 | 6.86448 | 3572 ft | 191 kts | 53° |
| 2026-05-05 18:00 | 51.34138 | 6.88221 | 3815 ft | 210 kts | 49° |
| 2026-05-05 18:00 | 51.35274 | 6.89843 | 3999 ft | 230 kts | 33° |
| 2026-05-05 18:00 | 51.36793 | 6.90909 | 4240 ft | 251 kts | 13° |
| 2026-05-05 18:00 | 51.38569 | 6.91398 | 4648 ft | 264 kts | 11° |
| 2026-05-05 18:01 | 51.40396 | 6.91861 | 5264 ft | 269 kts | 10° |
| 2026-05-05 18:01 | 51.42263 | 6.92338 | 5942 ft | 273 kts | 9° |
| 2026-05-05 18:01 | 51.44155 | 6.92856 | 6571 ft | 278 kts | 10° |
| 2026-05-05 18:01 | 51.46068 | 6.93404 | 7201 ft | 282 kts | 10° |
| 2026-05-05 18:02 | 51.48014 | 6.93973 | 7821 ft | 286 kts | 10° |
| 2026-05-05 18:02 | 51.49995 | 6.94402 | 8465 ft | 288 kts | 358° |
| 2026-05-05 18:02 | 51.51946 | 6.93866 | 9092 ft | 291 kts | 344° |
| 2026-05-05 18:02 | 51.53925 | 6.93087 | 9726 ft | 295 kts | 346° |
| 2026-05-05 18:03 | 51.55951 | 6.92402 | 10167 ft | 305 kts | 347° |
| 2026-05-05 18:03 | 51.58112 | 6.91742 | 10323 ft | 325 kts | 349° |
| 2026-05-05 18:03 | 51.60399 | 6.91086 | 10475 ft | 343 kts | 349° |
| 2026-05-05 18:03 | 51.62782 | 6.90445 | 10866 ft | 352 kts | 350° |
| 2026-05-05 18:04 | 51.65227 | 6.89895 | 11366 ft | 358 kts | 354° |
| 2026-05-05 18:04 | 51.67728 | 6.90061 | 11908 ft | 362 kts | 10° |
| 2026-05-05 18:04 | 51.70144 | 6.91239 | 12463 ft | 365 kts | 24° |
| 2026-05-05 18:04 | 51.72341 | 6.93312 | 12999 ft | 368 kts | 37° |
| 2026-05-05 18:05 | 51.74231 | 6.96100 | 13571 ft | 370 kts | 50° |
| 2026-05-05 18:05 | 51.75806 | 6.99390 | 14071 ft | 372 kts | 55° |
| 2026-05-05 18:05 | 51.77335 | 7.02787 | 14564 ft | 375 kts | 55° |
| 2026-05-05 18:05 | 51.78857 | 7.06220 | 15080 ft | 377 kts | 56° |
| 2026-05-05 18:06 | 51.80372 | 7.09637 | 15565 ft | 380 kts | 55° |
| 2026-05-05 18:06 | 51.81418 | 7.11983 | 15921 ft | 381 kts | 55° |
| 2026-05-05 18:06 | 51.83490 | 7.16599 | 16564 ft | 385 kts | 55° |
| 2026-05-05 18:06 | 51.85078 | 7.20097 | 17102 ft | 386 kts | 53° |
| 2026-05-05 18:07 | 51.86877 | 7.23343 | 17565 ft | 390 kts | 46° |
| 2026-05-05 18:07 | 51.88766 | 7.26497 | 18091 ft | 391 kts | 46° |
| 2026-05-05 18:07 | 51.90663 | 7.29677 | 18498 ft | 394 kts | 46° |
| 2026-05-05 18:07 | 51.92571 | 7.32887 | 18884 ft | 397 kts | 47° |
| 2026-05-05 18:08 | 51.94484 | 7.36121 | 19277 ft | 399 kts | 47° |
| 2026-05-05 18:08 | 51.96415 | 7.39395 | 19660 ft | 402 kts | 47° |
| 2026-05-05 18:08 | 51.98350 | 7.42681 | 20057 ft | 405 kts | 47° |
| 2026-05-05 18:08 | 52.00303 | 7.45998 | 20415 ft | 407 kts | 47° |
| 2026-05-05 18:09 | 52.02265 | 7.49339 | 20797 ft | 410 kts | 47° |
| 2026-05-05 18:09 | 52.04237 | 7.52704 | 21185 ft | 413 kts | 47° |
| 2026-05-05 18:09 | 52.06224 | 7.56106 | 21513 ft | 417 kts | 47° |
| 2026-05-05 18:09 | 52.08225 | 7.59543 | 21845 ft | 420 kts | 48° |
| 2026-05-05 18:10 | 52.10247 | 7.63015 | 22187 ft | 423 kts | 47° |
| 2026-05-05 18:10 | 52.12297 | 7.66487 | 22531 ft | 426 kts | 47° |
| 2026-05-05 18:10 | 52.14380 | 7.69958 | 22872 ft | 430 kts | 47° |
| 2026-05-05 18:10 | 52.16484 | 7.73436 | 23202 ft | 433 kts | 47° |
| 2026-05-05 18:11 | 52.18601 | 7.76940 | 23532 ft | 435 kts | 47° |
| 2026-05-05 18:11 | 52.20714 | 7.80483 | 23825 ft | 438 kts | 47° |
| 2026-05-05 18:11 | 52.22831 | 7.84079 | 24140 ft | 440 kts | 48° |
| 2026-05-05 18:11 | 52.24945 | 7.87692 | 24448 ft | 442 kts | 47° |
| 2026-05-05 18:12 | 52.27109 | 7.91268 | 24753 ft | 444 kts | 45° |
| 2026-05-05 18:12 | 52.29312 | 7.94773 | 24990 ft | 447 kts | 45° |
| 2026-05-05 18:12 | 52.31571 | 7.98285 | 25275 ft | 450 kts | 44° |
| 2026-05-05 18:12 | 52.33882 | 8.01856 | 25563 ft | 452 kts | 44° |
| 2026-05-05 18:13 | 52.36136 | 8.05358 | 25868 ft | 454 kts | 44° |
| 2026-05-05 18:13 | 52.38418 | 8.08944 | 26160 ft | 456 kts | 45° |
| 2026-05-05 18:13 | 52.40693 | 8.12559 | 26455 ft | 457 kts | 45° |
| 2026-05-05 18:13 | 52.42977 | 8.16212 | 26742 ft | 459 kts | 45° |
| 2026-05-05 18:14 | 52.45266 | 8.19881 | 27026 ft | 461 kts | 45° |
| 2026-05-05 18:14 | 52.47568 | 8.23572 | 27310 ft | 463 kts | 45° |
| 2026-05-05 18:14 | 52.49877 | 8.27279 | 27564 ft | 466 kts | 44° |
| 2026-05-05 18:14 | 52.52204 | 8.31011 | 27808 ft | 469 kts | 44° |
| 2026-05-05 18:15 | 52.54540 | 8.34763 | 28075 ft | 471 kts | 44° |
| 2026-05-05 18:15 | 52.56891 | 8.38545 | 28350 ft | 473 kts | 44° |
| 2026-05-05 18:15 | 52.59245 | 8.42338 | 28612 ft | 475 kts | 44° |
| 2026-05-05 18:15 | 52.61606 | 8.46151 | 28868 ft | 477 kts | 44° |
| 2026-05-05 18:16 | 52.63984 | 8.49991 | 29145 ft | 479 kts | 44° |
| 2026-05-05 18:16 | 52.66365 | 8.53842 | 29401 ft | 481 kts | 44° |
| 2026-05-05 18:16 | 52.68759 | 8.57715 | 29629 ft | 482 kts | 45° |
| 2026-05-05 18:16 | 52.71161 | 8.61602 | 29860 ft | 485 kts | 44° |
| 2026-05-05 18:17 | 52.73573 | 8.65516 | 30010 ft | 488 kts | 44° |
| 2026-05-05 18:17 | 52.76001 | 8.69467 | 30182 ft | 490 kts | 44° |
| 2026-05-05 18:17 | 52.78429 | 8.73434 | 30355 ft | 492 kts | 44° |
| 2026-05-05 18:17 | 52.80861 | 8.77420 | 30561 ft | 493 kts | 44° |
| 2026-05-05 18:18 | 52.83298 | 8.81420 | 30799 ft | 493 kts | 45° |
| 2026-05-05 18:18 | 52.85736 | 8.85428 | 31020 ft | 493 kts | 45° |
| 2026-05-05 18:18 | 52.88170 | 8.89429 | 31244 ft | 494 kts | 45° |
| 2026-05-05 18:18 | 52.90609 | 8.93433 | 31458 ft | 494 kts | 45° |
| 2026-05-05 18:19 | 52.93056 | 8.97448 | 31676 ft | 495 kts | 44° |
| 2026-05-05 18:19 | 52.95507 | 9.01479 | 31852 ft | 497 kts | 45° |
| 2026-05-05 18:19 | 52.97955 | 9.05517 | 32062 ft | 497 kts | 45° |
| 2026-05-05 18:19 | 53.00375 | 9.09526 | 32272 ft | 498 kts | 45° |
| 2026-05-05 18:20 | 53.02856 | 9.13655 | 32486 ft | 499 kts | 45° |
| 2026-05-05 18:20 | 53.04471 | 9.16348 | 32623 ft | 499 kts | 45° |
| 2026-05-05 18:20 | 53.07728 | 9.21781 | 32902 ft | 499 kts | 45° |
| 2026-05-05 18:20 | 53.10188 | 9.25883 | 33129 ft | 499 kts | 45° |
| 2026-05-05 18:21 | 53.12636 | 9.29969 | 33338 ft | 499 kts | 45° |
| 2026-05-05 18:21 | 53.15090 | 9.34071 | 33563 ft | 500 kts | 45° |
| 2026-05-05 18:21 | 53.17544 | 9.38186 | 33768 ft | 500 kts | 45° |
| 2026-05-05 18:21 | 53.19989 | 9.42293 | 33975 ft | 500 kts | 45° |
| 2026-05-05 18:22 | 53.22445 | 9.46419 | 34174 ft | 500 kts | 45° |
| 2026-05-05 18:22 | 53.24891 | 9.50529 | 34386 ft | 499 kts | 45° |
| 2026-05-05 18:22 | 53.27332 | 9.54637 | 34616 ft | 498 kts | 45° |
| 2026-05-05 18:22 | 53.29766 | 9.58747 | 34806 ft | 497 kts | 45° |
| 2026-05-05 18:23 | 53.32191 | 9.62856 | 34889 ft | 495 kts | 45° |
| 2026-05-05 18:23 | 53.37012 | 9.71059 | 34902 ft | 494 kts | 45° |
| 2026-05-05 18:24 | 53.41843 | 9.79297 | 34904 ft | 495 kts | 45° |
| 2026-05-05 18:24 | 53.46673 | 9.87549 | 34919 ft | 495 kts | 45° |
| 2026-05-05 18:25 | 53.50685 | 9.94425 | 34907 ft | 496 kts | 45° |
| 2026-05-05 18:25 | 53.55504 | 10.02715 | 34917 ft | 496 kts | 45° |
| 2026-05-05 18:26 | 53.61102 | 10.12386 | 34908 ft | 497 kts | 45° |
| 2026-05-05 18:26 | 53.65140 | 10.19390 | 34904 ft | 497 kts | 45° |
| 2026-05-05 18:27 | 53.69929 | 10.27723 | 34908 ft | 498 kts | 45° |
| 2026-05-05 18:27 | 53.74752 | 10.36131 | 34931 ft | 498 kts | 45° |
| 2026-05-05 18:28 | 53.81988 | 10.48801 | 34948 ft | 498 kts | 45° |
| 2026-05-05 18:28 | 53.86794 | 10.57265 | 34925 ft | 499 kts | 45° |
| 2026-05-05 18:29 | 53.89194 | 10.61499 | 34795 ft | 497 kts | 45° |
| 2026-05-05 18:29 | 53.91581 | 10.65717 | 34549 ft | 493 kts | 45° |
| 2026-05-05 18:29 | 53.93950 | 10.69910 | 34306 ft | 491 kts | 45° |
| 2026-05-05 18:29 | 53.96306 | 10.74090 | 34065 ft | 490 kts | 45° |
| 2026-05-05 18:30 | 53.98658 | 10.78269 | 33640 ft | 488 kts | 45° |
| 2026-05-05 18:30 | 54.00995 | 10.82430 | 33100 ft | 485 kts | 45° |
| 2026-05-05 18:30 | 54.03285 | 10.86514 | 32572 ft | 482 kts | 44° |
| 2026-05-05 18:30 | 54.05620 | 10.90689 | 32028 ft | 480 kts | 45° |
| 2026-05-05 18:31 | 54.07912 | 10.94801 | 31486 ft | 477 kts | 45° |
| 2026-05-05 18:31 | 54.10183 | 10.98885 | 30959 ft | 474 kts | 45° |
| 2026-05-05 18:31 | 54.12445 | 11.02957 | 30428 ft | 471 kts | 45° |
| 2026-05-05 18:31 | 54.14692 | 11.06999 | 29903 ft | 468 kts | 45° |
| 2026-05-05 18:32 | 54.16924 | 11.11015 | 29357 ft | 464 kts | 45° |
| 2026-05-05 18:32 | 54.19130 | 11.14986 | 28864 ft | 459 kts | 45° |
| 2026-05-05 18:32 | 54.21310 | 11.18916 | 28385 ft | 453 kts | 45° |
| 2026-05-05 18:32 | 54.23443 | 11.22772 | 27924 ft | 448 kts | 44° |
| 2026-05-05 18:33 | 54.25574 | 11.26637 | 27449 ft | 444 kts | 44° |
| 2026-05-05 18:33 | 54.27677 | 11.30458 | 26997 ft | 439 kts | 44° |
| 2026-05-05 18:33 | 54.29758 | 11.34252 | 26553 ft | 435 kts | 44° |
| 2026-05-05 18:33 | 54.31821 | 11.38015 | 26117 ft | 431 kts | 44° |
| 2026-05-05 18:34 | 54.33859 | 11.41740 | 25675 ft | 427 kts | 44° |
| 2026-05-05 18:34 | 54.35884 | 11.45446 | 25227 ft | 424 kts | 44° |
| 2026-05-05 18:34 | 54.37892 | 11.49123 | 24780 ft | 420 kts | 44° |
| 2026-05-05 18:34 | 54.39884 | 11.52776 | 24320 ft | 418 kts | 44° |
| 2026-05-05 18:35 | 54.41863 | 11.56412 | 23871 ft | 415 kts | 44° |
| 2026-05-05 18:35 | 54.43823 | 11.60017 | 23383 ft | 413 kts | 44° |
| 2026-05-05 18:35 | 54.45778 | 11.63615 | 22894 ft | 410 kts | 44° |
| 2026-05-05 18:35 | 54.47717 | 11.67187 | 22410 ft | 406 kts | 44° |
| 2026-05-05 18:36 | 54.49637 | 11.70730 | 21947 ft | 402 kts | 44° |
| 2026-05-05 18:36 | 54.51534 | 11.74240 | 21472 ft | 398 kts | 44° |
| 2026-05-05 18:36 | 54.53411 | 11.77715 | 21011 ft | 395 kts | 44° |
| 2026-05-05 18:36 | 54.55272 | 11.81173 | 20553 ft | 391 kts | 44° |
| 2026-05-05 18:37 | 54.57093 | 11.84556 | 20093 ft | 388 kts | 44° |
| 2026-05-05 18:37 | 54.58921 | 11.87957 | 19628 ft | 385 kts | 44° |
| 2026-05-05 18:37 | 54.60737 | 11.91331 | 19185 ft | 382 kts | 43° |
| 2026-05-05 18:37 | 54.62709 | 11.94322 | 18748 ft | 374 kts | 31° |
| 2026-05-05 18:38 | 54.64849 | 11.96796 | 18377 ft | 368 kts | 29° |
| 2026-05-05 18:38 | 54.66966 | 11.99227 | 17962 ft | 363 kts | 29° |
| 2026-05-05 18:38 | 54.69088 | 12.01672 | 17565 ft | 360 kts | 29° |
| 2026-05-05 18:38 | 54.71134 | 12.04025 | 17190 ft | 357 kts | 29° |
| 2026-05-05 18:39 | 54.73193 | 12.06398 | 16854 ft | 355 kts | 29° |
| 2026-05-05 18:39 | 54.75268 | 12.08802 | 16462 ft | 352 kts | 30° |
| 2026-05-05 18:39 | 54.77268 | 12.11138 | 16101 ft | 350 kts | 30° |
| 2026-05-05 18:39 | 54.79275 | 12.13497 | 15751 ft | 348 kts | 30° |
| 2026-05-05 18:40 | 54.81270 | 12.15849 | 15391 ft | 346 kts | 30° |
| 2026-05-05 18:40 | 54.83256 | 12.18176 | 14975 ft | 343 kts | 30° |
| 2026-05-05 18:40 | 54.85232 | 12.20467 | 14597 ft | 340 kts | 30° |
| 2026-05-05 18:40 | 54.87199 | 12.22753 | 14293 ft | 338 kts | 30° |
| 2026-05-05 18:41 | 54.89146 | 12.25024 | 13941 ft | 336 kts | 31° |
| 2026-05-05 18:41 | 54.91080 | 12.27289 | 13595 ft | 334 kts | 30° |
| 2026-05-05 18:41 | 54.93002 | 12.29545 | 13216 ft | 332 kts | 31° |
| 2026-05-05 18:41 | 54.94908 | 12.31782 | 12852 ft | 330 kts | 31° |
| 2026-05-05 18:42 | 54.96803 | 12.34001 | 12520 ft | 327 kts | 31° |
| 2026-05-05 18:42 | 54.98690 | 12.36210 | 12196 ft | 325 kts | 31° |
| 2026-05-05 18:42 | 55.00562 | 12.38404 | 11869 ft | 323 kts | 31° |
| 2026-05-05 18:42 | 55.02423 | 12.40575 | 11549 ft | 320 kts | 31° |
| 2026-05-05 18:43 | 55.04271 | 12.42725 | 11228 ft | 318 kts | 31° |
| 2026-05-05 18:43 | 55.06106 | 12.44865 | 10910 ft | 316 kts | 31° |
| 2026-05-05 18:43 | 55.07927 | 12.46991 | 10599 ft | 314 kts | 31° |
| 2026-05-05 18:43 | 55.09720 | 12.49088 | 10346 ft | 307 kts | 31° |
| 2026-05-05 18:44 | 55.11484 | 12.51153 | 10000 ft | 303 kts | 31° |
| 2026-05-05 18:44 | 55.13220 | 12.53191 | 9671 ft | 299 kts | 32° |
| 2026-05-05 18:44 | 55.14939 | 12.55210 | 9359 ft | 296 kts | 31° |
| 2026-05-05 18:44 | 55.16636 | 12.57203 | 9059 ft | 293 kts | 32° |
| 2026-05-05 18:45 | 55.18354 | 12.59080 | 8768 ft | 288 kts | 21° |
| 2026-05-05 18:45 | 55.20248 | 12.59761 | 8493 ft | 280 kts | 354° |
| 2026-05-05 18:45 | 55.22162 | 12.59268 | 8199 ft | 277 kts | 346° |
| 2026-05-05 18:45 | 55.24075 | 12.58541 | 7777 ft | 277 kts | 345° |
| 2026-05-05 18:46 | 55.25926 | 12.57800 | 7387 ft | 276 kts | 345° |
| 2026-05-05 18:46 | 55.27788 | 12.57039 | 7017 ft | 273 kts | 345° |
| 2026-05-05 18:46 | 55.29610 | 12.56264 | 6920 ft | 268 kts | 345° |
| 2026-05-05 18:46 | 55.31431 | 12.55476 | 6882 ft | 271 kts | 345° |
| 2026-05-05 18:47 | 55.33256 | 12.54669 | 6542 ft | 270 kts | 345° |
| 2026-05-05 18:47 | 55.35068 | 12.53845 | 6169 ft | 268 kts | 346° |
| 2026-05-05 18:47 | 55.36860 | 12.53000 | 5769 ft | 266 kts | 346° |
| 2026-05-05 18:47 | 55.38643 | 12.52135 | 5383 ft | 265 kts | 345° |
| 2026-05-05 18:48 | 55.40406 | 12.51247 | 4997 ft | 263 kts | 344° |
| 2026-05-05 18:48 | 55.42156 | 12.50322 | 4599 ft | 262 kts | 344° |
| 2026-05-05 18:48 | 55.43883 | 12.49396 | 4170 ft | 253 kts | 345° |
| 2026-05-05 18:48 | 55.45522 | 12.48510 | 3722 ft | 241 kts | 344° |
| 2026-05-05 18:49 | 55.47086 | 12.47658 | 3257 ft | 230 kts | 344° |
| 2026-05-05 18:49 | 55.48614 | 12.47171 | 2789 ft | 218 kts | 5° |
| 2026-05-05 18:49 | 55.50066 | 12.47592 | 2350 ft | 207 kts | 13° |
| 2026-05-05 18:49 | 55.51371 | 12.48408 | 2097 ft | 191 kts | 30° |
| 2026-05-05 18:50 | 55.52386 | 12.49831 | 1858 ft | 182 kts | 39° |
| 2026-05-05 18:50 | 55.53317 | 12.51263 | 1614 ft | 173 kts | 40° |
| 2026-05-05 18:50 | 55.54194 | 12.52609 | 1367 ft | 161 kts | 39° |
| 2026-05-05 18:50 | 55.54989 | 12.53841 | 1205 ft | 145 kts | 39° |
| 2026-05-05 18:51 | 55.55736 | 12.54958 | 966 ft | 138 kts | 38° |
| 2026-05-05 18:51 | 55.56471 | 12.56075 | 800 ft | 139 kts | 38° |
| 2026-05-05 18:51 | 55.57193 | 12.57214 | 587 ft | 139 kts | 39° |
| 2026-05-05 18:51 | 55.57920 | 12.58330 | 404 ft | 139 kts | 39° |
| 2026-05-05 18:52 | 55.58638 | 12.59447 | 213 ft | 138 kts | 39° |
| 2026-05-05 18:52 | 55.59328 | 12.60520 | 54 ft | 135 kts | 38° |
| 2026-05-05 18:52 | 55.59864 | 12.61316 | 23 ft | 107 kts | 41° |
| 2026-05-05 18:52 | 55.60267 | 12.61964 | 25 ft | 60 kts | 41° |
| 2026-05-05 18:53 | 55.60440 | 12.62232 | 26 ft | 32 kts | 41° |
| 2026-05-05 18:53 | 55.60555 | 12.62412 | 29 ft | 29 kts | 41° |
| 2026-05-05 18:53 | 55.60670 | 12.62582 | 29 ft | 28 kts | 38° |